sensor_id;sensor_type;location;lat;lon;timestamp;temperature;humidity
10543;DHT22;5320;50.046;10.314;2022-11-20T00:00:03;-0.10;99.90
10543;DHT22;5320;50.046;10.314;2022-11-20T00:02:29;-0.10;99.90
10543;DHT22;5320;50.046;10.314;2022-11-20T00:04:54;-0.20;99.90
10543;DHT22;5320;50.046;10.314;2022-11-20T00:07:20;-0.30;99.90
10543;DHT22;5320;50.046;10.314;2022-11-20T00:09:45;-0.30;99.90
10543;DHT22;5320;50.046;10.314;2022-11-20T00:12:11;-0.30;99.90
10543;DHT22;5320;50.046;10.314;2022-11-20T00:14:37;-0.40;99.90
10543;DHT22;5320;50.046;10.314;2022-11-20T00:17:02;-0.40;99.90
10543;DHT22;5320;50.046;10.314;2022-11-20T00:19:28;-0.50;99.90
10543;DHT22;5320;50.046;10.314;2022-11-20T00:21:53;-0.50;99.90
10543;DHT22;5320;50.046;10.314;2022-11-20T00:24:20;-0.40;99.90
10543;DHT22;5320;50.046;10.314;2022-11-20T00:26:46;-0.40;99.90
10543;DHT22;5320;50.046;10.314;2022-11-20T00:29:11;-0.40;99.90
10543;DHT22;5320;50.046;10.314;2022-11-20T00:31:37;-0.30;99.90
10543;DHT22;5320;50.046;10.314;2022-11-20T00:34:03;-0.30;99.90
10543;DHT22;5320;50.046;10.314;2022-11-20T00:36:33;-0.20;99.90
10543;DHT22;5320;50.046;10.314;2022-11-20T00:38:59;-0.20;99.90
10543;DHT22;5320;50.046;10.314;2022-11-20T00:41:25;-0.10;99.90
10543;DHT22;5320;50.046;10.314;2022-11-20T00:43:52;-0.10;99.90
10543;DHT22;5320;50.046;10.314;2022-11-20T00:46:20;-0.10;99.90
10543;DHT22;5320;50.046;10.314;2022-11-20T00:48:46;-0.10;99.90
10543;DHT22;5320;50.046;10.314;2022-11-20T00:51:14;-0.10;99.90
10543;DHT22;5320;50.046;10.314;2022-11-20T00:53:41;-0.10;99.90
10543;DHT22;5320;50.046;10.314;2022-11-20T00:56:09;-0.10;99.90
10543;DHT22;5320;50.046;10.314;2022-11-20T00:58:37;-0.20;99.90
10543;DHT22;5320;50.046;10.314;2022-11-20T01:01:06;-0.20;99.90
10543;DHT22;5320;50.046;10.314;2022-11-20T01:03:33;-0.20;99.90
10543;DHT22;5320;50.046;10.314;2022-11-20T01:06:03;-0.20;99.90
10543;DHT22;5320;50.046;10.314;2022-11-20T01:08:30;-0.10;99.90
10543;DHT22;5320;50.046;10.314;2022-11-20T01:11:08;-0.10;99.90
10543;DHT22;5320;50.046;10.314;2022-11-20T01:13:34;-0.10;99.90
10543;DHT22;5320;50.046;10.314;2022-11-20T01:18:32;-0.10;99.90
10543;DHT22;5320;50.046;10.314;2022-11-20T01:21:09;0.00;99.90
10543;DHT22;5320;50.046;10.314;2022-11-20T01:23:38;0.00;99.90
10543;DHT22;5320;50.046;10.314;2022-11-20T01:26:09;0.10;99.90
10543;DHT22;5320;50.046;10.314;2022-11-20T01:28:35;0.10;99.90
10543;DHT22;5320;50.046;10.314;2022-11-20T01:31:01;0.20;99.90
10543;DHT22;5320;50.046;10.314;2022-11-20T01:33:35;0.20;99.90
10543;DHT22;5320;50.046;10.314;2022-11-20T01:36:05;0.30;99.90
10543;DHT22;5320;50.046;10.314;2022-11-20T01:38:30;0.30;99.90
10543;DHT22;5320;50.046;10.314;2022-11-20T01:40:56;0.40;99.90
10543;DHT22;5320;50.046;10.314;2022-11-20T01:43:23;0.40;99.90
10543;DHT22;5320;50.046;10.314;2022-11-20T01:51:20;0.50;99.90
10543;DHT22;5320;50.046;10.314;2022-11-20T01:53:46;0.50;99.90
10543;DHT22;5320;50.046;10.314;2022-11-20T01:56:13;0.50;99.90
10543;DHT22;5320;50.046;10.314;2022-11-20T01:58:44;0.40;99.90
10543;DHT22;5320;50.046;10.314;2022-11-20T02:01:13;0.50;99.90
10543;DHT22;5320;50.046;10.314;2022-11-20T02:03:39;0.50;99.90
10543;DHT22;5320;50.046;10.314;2022-11-20T02:08:34;0.50;99.90
10543;DHT22;5320;50.046;10.314;2022-11-20T02:11:00;0.40;99.90
10543;DHT22;5320;50.046;10.314;2022-11-20T02:13:25;0.40;99.90
10543;DHT22;5320;50.046;10.314;2022-11-20T02:18:41;0.30;99.90
10543;DHT22;5320;50.046;10.314;2022-11-20T02:26:25;0.30;99.90
10543;DHT22;5320;50.046;10.314;2022-11-20T02:28:51;0.30;99.90
10543;DHT22;5320;50.046;10.314;2022-11-20T02:31:17;0.30;99.90
10543;DHT22;5320;50.046;10.314;2022-11-20T02:33:43;0.30;99.90
10543;DHT22;5320;50.046;10.314;2022-11-20T02:36:12;0.30;99.90
10543;DHT22;5320;50.046;10.314;2022-11-20T02:38:39;0.30;99.90
10543;DHT22;5320;50.046;10.314;2022-11-20T02:41:05;0.30;99.90
10543;DHT22;5320;50.046;10.314;2022-11-20T02:43:30;0.20;99.90
10543;DHT22;5320;50.046;10.314;2022-11-20T02:45:56;0.20;99.90
10543;DHT22;5320;50.046;10.314;2022-11-20T02:48:21;0.20;99.90
10543;DHT22;5320;50.046;10.314;2022-11-20T02:50:47;0.20;99.90
10543;DHT22;5320;50.046;10.314;2022-11-20T02:53:13;0.30;99.90
10543;DHT22;5320;50.046;10.314;2022-11-20T02:55:38;0.30;99.90
10543;DHT22;5320;50.046;10.314;2022-11-20T02:58:04;0.30;99.90
10543;DHT22;5320;50.046;10.314;2022-11-20T03:00:30;0.40;99.90
10543;DHT22;5320;50.046;10.314;2022-11-20T03:02:56;0.40;99.90
10543;DHT22;5320;50.046;10.314;2022-11-20T03:05:21;0.40;99.90
10543;DHT22;5320;50.046;10.314;2022-11-20T03:07:47;0.40;99.90
10543;DHT22;5320;50.046;10.314;2022-11-20T03:10:12;0.40;99.90
10543;DHT22;5320;50.046;10.314;2022-11-20T03:12:38;0.40;99.90
10543;DHT22;5320;50.046;10.314;2022-11-20T03:15:04;0.40;99.90
10543;DHT22;5320;50.046;10.314;2022-11-20T03:17:29;0.40;99.90
10543;DHT22;5320;50.046;10.314;2022-11-20T03:19:56;0.40;99.90
10543;DHT22;5320;50.046;10.314;2022-11-20T03:22:21;0.20;99.90
10543;DHT22;5320;50.046;10.314;2022-11-20T03:24:47;0.00;99.90
10543;DHT22;5320;50.046;10.314;2022-11-20T03:27:13;0.10;99.90
10543;DHT22;5320;50.046;10.314;2022-11-20T03:29:39;0.20;99.90
10543;DHT22;5320;50.046;10.314;2022-11-20T03:32:04;0.30;99.90
10543;DHT22;5320;50.046;10.314;2022-11-20T03:34:30;0.30;99.90
10543;DHT22;5320;50.046;10.314;2022-11-20T03:36:56;0.40;99.90
10543;DHT22;5320;50.046;10.314;2022-11-20T03:39:21;0.50;99.90
10543;DHT22;5320;50.046;10.314;2022-11-20T03:41:47;0.60;99.90
10543;DHT22;5320;50.046;10.314;2022-11-20T03:44:12;0.60;99.90
10543;DHT22;5320;50.046;10.314;2022-11-20T03:46:38;0.60;99.90
10543;DHT22;5320;50.046;10.314;2022-11-20T03:49:04;0.60;99.90
10543;DHT22;5320;50.046;10.314;2022-11-20T03:51:32;0.60;99.90
10543;DHT22;5320;50.046;10.314;2022-11-20T03:54:06;0.60;99.90
10543;DHT22;5320;50.046;10.314;2022-11-20T03:56:34;0.60;99.90
10543;DHT22;5320;50.046;10.314;2022-11-20T03:59:00;0.60;99.90
10543;DHT22;5320;50.046;10.314;2022-11-20T04:01:29;0.50;99.90
10543;DHT22;5320;50.046;10.314;2022-11-20T04:03:56;0.50;99.90
10543;DHT22;5320;50.046;10.314;2022-11-20T04:06:29;0.50;99.90
10543;DHT22;5320;50.046;10.314;2022-11-20T04:08:57;0.50;99.90
10543;DHT22;5320;50.046;10.314;2022-11-20T04:11:26;0.50;99.90
10543;DHT22;5320;50.046;10.314;2022-11-20T04:13:57;0.50;99.90
10543;DHT22;5320;50.046;10.314;2022-11-20T04:16:24;0.40;99.90
10543;DHT22;5320;50.046;10.314;2022-11-20T04:18:54;0.40;99.90
10543;DHT22;5320;50.046;10.314;2022-11-20T04:21:20;0.40;99.90
10543;DHT22;5320;50.046;10.314;2022-11-20T04:23:46;0.50;99.90
10543;DHT22;5320;50.046;10.314;2022-11-20T04:26:12;0.50;99.90
10543;DHT22;5320;50.046;10.314;2022-11-20T04:28:38;0.50;99.90
10543;DHT22;5320;50.046;10.314;2022-11-20T04:31:12;0.40;99.90
10543;DHT22;5320;50.046;10.314;2022-11-20T04:33:38;0.50;99.90
10543;DHT22;5320;50.046;10.314;2022-11-20T04:36:07;0.50;99.90
10543;DHT22;5320;50.046;10.314;2022-11-20T04:38:33;0.40;99.90
10543;DHT22;5320;50.046;10.314;2022-11-20T04:41:00;0.40;99.90
10543;DHT22;5320;50.046;10.314;2022-11-20T04:43:27;0.40;99.90
10543;DHT22;5320;50.046;10.314;2022-11-20T04:45:56;0.50;99.90
10543;DHT22;5320;50.046;10.314;2022-11-20T04:48:23;0.50;99.90
10543;DHT22;5320;50.046;10.314;2022-11-20T04:50:49;0.50;99.90
10543;DHT22;5320;50.046;10.314;2022-11-20T04:53:15;0.40;99.90
10543;DHT22;5320;50.046;10.314;2022-11-20T04:55:40;0.30;99.90
10543;DHT22;5320;50.046;10.314;2022-11-20T04:58:06;0.20;99.90
10543;DHT22;5320;50.046;10.314;2022-11-20T05:00:32;0.10;99.90
10543;DHT22;5320;50.046;10.314;2022-11-20T05:02:58;0.00;99.90
10543;DHT22;5320;50.046;10.314;2022-11-20T05:05:23;0.10;99.90
10543;DHT22;5320;50.046;10.314;2022-11-20T05:07:49;0.20;99.90
10543;DHT22;5320;50.046;10.314;2022-11-20T05:10:15;0.30;99.90
10543;DHT22;5320;50.046;10.314;2022-11-20T05:12:40;0.30;99.90
10543;DHT22;5320;50.046;10.314;2022-11-20T05:15:06;0.40;99.90
10543;DHT22;5320;50.046;10.314;2022-11-20T05:17:32;0.40;99.90
10543;DHT22;5320;50.046;10.314;2022-11-20T05:19:57;0.40;99.90
10543;DHT22;5320;50.046;10.314;2022-11-20T05:22:23;0.40;99.90
10543;DHT22;5320;50.046;10.314;2022-11-20T05:24:49;0.40;99.90
10543;DHT22;5320;50.046;10.314;2022-11-20T05:27:14;0.40;99.90
10543;DHT22;5320;50.046;10.314;2022-11-20T05:29:40;0.40;99.90
10543;DHT22;5320;50.046;10.314;2022-11-20T05:32:05;0.40;99.90
10543;DHT22;5320;50.046;10.314;2022-11-20T05:34:34;0.40;99.90
10543;DHT22;5320;50.046;10.314;2022-11-20T05:36:59;0.40;99.90
10543;DHT22;5320;50.046;10.314;2022-11-20T05:39:25;0.40;99.90
10543;DHT22;5320;50.046;10.314;2022-11-20T05:41:50;0.50;99.90
10543;DHT22;5320;50.046;10.314;2022-11-20T05:44:36;0.50;99.90
10543;DHT22;5320;50.046;10.314;2022-11-20T05:47:01;0.50;99.90
10543;DHT22;5320;50.046;10.314;2022-11-20T05:49:27;0.50;99.90
10543;DHT22;5320;50.046;10.314;2022-11-20T05:51:53;0.60;99.90
10543;DHT22;5320;50.046;10.314;2022-11-20T05:54:18;0.60;99.90
10543;DHT22;5320;50.046;10.314;2022-11-20T05:56:44;0.50;99.90
10543;DHT22;5320;50.046;10.314;2022-11-20T05:59:09;0.40;99.90
10543;DHT22;5320;50.046;10.314;2022-11-20T06:01:35;0.50;99.90
10543;DHT22;5320;50.046;10.314;2022-11-20T06:04:01;0.60;99.90
10543;DHT22;5320;50.046;10.314;2022-11-20T06:06:27;0.60;99.90
10543;DHT22;5320;50.046;10.314;2022-11-20T06:08:53;0.70;99.90
10543;DHT22;5320;50.046;10.314;2022-11-20T06:11:19;0.70;99.90
10543;DHT22;5320;50.046;10.314;2022-11-20T06:13:46;0.70;99.90
10543;DHT22;5320;50.046;10.314;2022-11-20T06:16:14;0.80;99.90
10543;DHT22;5320;50.046;10.314;2022-11-20T06:18:40;0.80;99.90
10543;DHT22;5320;50.046;10.314;2022-11-20T06:21:12;0.80;99.90
10543;DHT22;5320;50.046;10.314;2022-11-20T06:23:38;0.80;99.90
10543;DHT22;5320;50.046;10.314;2022-11-20T06:26:09;0.80;99.90
10543;DHT22;5320;50.046;10.314;2022-11-20T06:28:35;0.70;99.90
10543;DHT22;5320;50.046;10.314;2022-11-20T06:31:01;0.70;99.90
10543;DHT22;5320;50.046;10.314;2022-11-20T06:33:27;0.60;99.90
10543;DHT22;5320;50.046;10.314;2022-11-20T06:35:56;0.60;99.90
10543;DHT22;5320;50.046;10.314;2022-11-20T06:38:24;0.50;99.90
10543;DHT22;5320;50.046;10.314;2022-11-20T06:40:50;0.60;99.90
10543;DHT22;5320;50.046;10.314;2022-11-20T06:43:15;0.90;99.90
10543;DHT22;5320;50.046;10.314;2022-11-20T06:45:41;0.90;99.90
10543;DHT22;5320;50.046;10.314;2022-11-20T06:48:06;0.80;99.90
10543;DHT22;5320;50.046;10.314;2022-11-20T06:50:32;0.80;99.90
10543;DHT22;5320;50.046;10.314;2022-11-20T06:53:01;0.80;99.90
10543;DHT22;5320;50.046;10.314;2022-11-20T06:55:27;0.70;99.90
10543;DHT22;5320;50.046;10.314;2022-11-20T06:57:53;0.70;99.90
10543;DHT22;5320;50.046;10.314;2022-11-20T07:00:18;0.70;99.90
10543;DHT22;5320;50.046;10.314;2022-11-20T07:02:44;0.70;99.90
10543;DHT22;5320;50.046;10.314;2022-11-20T07:05:10;0.70;99.90
10543;DHT22;5320;50.046;10.314;2022-11-20T07:07:35;0.70;99.90
10543;DHT22;5320;50.046;10.314;2022-11-20T07:10:01;0.70;99.90
10543;DHT22;5320;50.046;10.314;2022-11-20T07:12:26;0.70;99.90
10543;DHT22;5320;50.046;10.314;2022-11-20T07:14:52;0.70;99.90
10543;DHT22;5320;50.046;10.314;2022-11-20T07:17:17;0.70;99.90
10543;DHT22;5320;50.046;10.314;2022-11-20T07:19:43;0.70;99.90
10543;DHT22;5320;50.046;10.314;2022-11-20T07:22:09;0.80;99.90
10543;DHT22;5320;50.046;10.314;2022-11-20T07:24:34;0.80;99.90
10543;DHT22;5320;50.046;10.314;2022-11-20T07:27:00;0.80;99.90
10543;DHT22;5320;50.046;10.314;2022-11-20T07:29:26;0.80;99.90
10543;DHT22;5320;50.046;10.314;2022-11-20T07:31:51;0.60;99.90
10543;DHT22;5320;50.046;10.314;2022-11-20T07:34:17;0.70;99.90
10543;DHT22;5320;50.046;10.314;2022-11-20T07:36:42;0.70;99.90
10543;DHT22;5320;50.046;10.314;2022-11-20T07:39:08;0.70;99.90
10543;DHT22;5320;50.046;10.314;2022-11-20T07:41:33;0.80;99.90
10543;DHT22;5320;50.046;10.314;2022-11-20T07:43:59;0.80;99.90
10543;DHT22;5320;50.046;10.314;2022-11-20T07:46:25;0.80;99.90
10543;DHT22;5320;50.046;10.314;2022-11-20T07:48:50;0.80;99.90
10543;DHT22;5320;50.046;10.314;2022-11-20T07:51:16;0.80;99.90
10543;DHT22;5320;50.046;10.314;2022-11-20T07:53:41;0.90;99.90
10543;DHT22;5320;50.046;10.314;2022-11-20T07:56:07;0.90;99.90
10543;DHT22;5320;50.046;10.314;2022-11-20T07:58:33;1.00;99.90
10543;DHT22;5320;50.046;10.314;2022-11-20T08:01:07;1.10;99.90
10543;DHT22;5320;50.046;10.314;2022-11-20T08:03:34;1.10;99.90
10543;DHT22;5320;50.046;10.314;2022-11-20T08:06:03;1.10;99.90
10543;DHT22;5320;50.046;10.314;2022-11-20T08:08:28;1.00;99.90
10543;DHT22;5320;50.046;10.314;2022-11-20T08:10:56;1.00;99.90
10543;DHT22;5320;50.046;10.314;2022-11-20T08:13:41;1.10;99.90
10543;DHT22;5320;50.046;10.314;2022-11-20T08:16:25;1.20;99.90
10543;DHT22;5320;50.046;10.314;2022-11-20T08:18:51;1.20;99.90
10543;DHT22;5320;50.046;10.314;2022-11-20T08:21:16;1.30;99.90
10543;DHT22;5320;50.046;10.314;2022-11-20T08:23:42;1.40;99.90
10543;DHT22;5320;50.046;10.314;2022-11-20T08:26:08;1.40;99.90
10543;DHT22;5320;50.046;10.314;2022-11-20T08:28:33;1.30;99.90
10543;DHT22;5320;50.046;10.314;2022-11-20T08:31:00;1.30;99.90
10543;DHT22;5320;50.046;10.314;2022-11-20T08:33:26;1.30;99.90
10543;DHT22;5320;50.046;10.314;2022-11-20T08:35:52;1.40;99.90
10543;DHT22;5320;50.046;10.314;2022-11-20T08:38:17;1.40;99.90
10543;DHT22;5320;50.046;10.314;2022-11-20T08:40:43;1.30;99.90
10543;DHT22;5320;50.046;10.314;2022-11-20T08:43:28;1.30;99.90
10543;DHT22;5320;50.046;10.314;2022-11-20T08:45:56;1.10;99.90
10543;DHT22;5320;50.046;10.314;2022-11-20T08:48:22;1.00;99.90
10543;DHT22;5320;50.046;10.314;2022-11-20T08:50:47;1.00;99.90
10543;DHT22;5320;50.046;10.314;2022-11-20T08:53:13;1.00;99.90
10543;DHT22;5320;50.046;10.314;2022-11-20T08:55:38;0.90;99.90
10543;DHT22;5320;50.046;10.314;2022-11-20T08:58:05;0.90;99.90
10543;DHT22;5320;50.046;10.314;2022-11-20T09:00:32;0.90;99.90
10543;DHT22;5320;50.046;10.314;2022-11-20T09:02:58;0.90;99.90
10543;DHT22;5320;50.046;10.314;2022-11-20T09:05:25;0.90;99.90
10543;DHT22;5320;50.046;10.314;2022-11-20T09:07:50;1.00;99.90
10543;DHT22;5320;50.046;10.314;2022-11-20T09:10:16;1.00;99.90
10543;DHT22;5320;50.046;10.314;2022-11-20T09:12:41;1.10;99.90
10543;DHT22;5320;50.046;10.314;2022-11-20T09:15:07;0.90;99.90
10543;DHT22;5320;50.046;10.314;2022-11-20T09:17:33;0.90;99.90
10543;DHT22;5320;50.046;10.314;2022-11-20T09:19:58;1.10;99.90
10543;DHT22;5320;50.046;10.314;2022-11-20T09:22:24;1.50;99.90
10543;DHT22;5320;50.046;10.314;2022-11-20T09:24:49;2.10;99.90
10543;DHT22;5320;50.046;10.314;2022-11-20T09:27:15;2.60;99.90
10543;DHT22;5320;50.046;10.314;2022-11-20T09:29:46;2.70;99.90
10543;DHT22;5320;50.046;10.314;2022-11-20T09:32:11;2.60;99.90
10543;DHT22;5320;50.046;10.314;2022-11-20T09:34:37;3.30;99.90
10543;DHT22;5320;50.046;10.314;2022-11-20T09:37:02;3.00;99.90
10543;DHT22;5320;50.046;10.314;2022-11-20T09:39:28;2.80;99.90
10543;DHT22;5320;50.046;10.314;2022-11-20T09:42:04;2.40;99.90
10543;DHT22;5320;50.046;10.314;2022-11-20T09:44:49;2.20;99.90
10543;DHT22;5320;50.046;10.314;2022-11-20T09:53:52;2.00;99.90
10543;DHT22;5320;50.046;10.314;2022-11-20T09:56:19;2.00;99.90
10543;DHT22;5320;50.046;10.314;2022-11-20T09:58:48;1.80;99.90
10543;DHT22;5320;50.046;10.314;2022-11-20T10:01:17;1.90;99.90
10543;DHT22;5320;50.046;10.314;2022-11-20T10:03:54;2.00;99.90
10543;DHT22;5320;50.046;10.314;2022-11-20T10:06:31;2.10;99.90
10543;DHT22;5320;50.046;10.314;2022-11-20T10:14:24;2.10;99.90
10543;DHT22;5320;50.046;10.314;2022-11-20T10:30:12;2.10;99.90
10543;DHT22;5320;50.046;10.314;2022-11-20T10:33:00;2.00;99.90
10543;DHT22;5320;50.046;10.314;2022-11-20T10:35:40;1.80;99.90
10543;DHT22;5320;50.046;10.314;2022-11-20T10:38:28;1.70;99.90
10543;DHT22;5320;50.046;10.314;2022-11-20T10:40:59;1.80;99.90
10543;DHT22;5320;50.046;10.314;2022-11-20T10:43:44;1.70;99.90
10543;DHT22;5320;50.046;10.314;2022-11-20T10:46:17;1.80;99.90
10543;DHT22;5320;50.046;10.314;2022-11-20T10:48:44;1.80;99.90
10543;DHT22;5320;50.046;10.314;2022-11-20T10:56:44;1.60;99.90
10543;DHT22;5320;50.046;10.314;2022-11-20T11:01:51;1.90;99.90
10543;DHT22;5320;50.046;10.314;2022-11-20T11:07:14;2.50;99.90
10543;DHT22;5320;50.046;10.314;2022-11-20T11:09:44;2.40;99.90
10543;DHT22;5320;50.046;10.314;2022-11-20T11:12:10;2.50;99.90
10543;DHT22;5320;50.046;10.314;2022-11-20T11:14:51;3.20;99.90
10543;DHT22;5320;50.046;10.314;2022-11-20T11:17:24;3.70;99.90
10543;DHT22;5320;50.046;10.314;2022-11-20T11:20:25;3.20;99.90
10543;DHT22;5320;50.046;10.314;2022-11-20T11:22:56;2.80;99.90
10543;DHT22;5320;50.046;10.314;2022-11-20T11:25:36;2.40;99.90
10543;DHT22;5320;50.046;10.314;2022-11-20T11:30:43;2.10;99.90
10543;DHT22;5320;50.046;10.314;2022-11-20T11:33:17;2.10;99.90
10543;DHT22;5320;50.046;10.314;2022-11-20T11:35:46;3.00;99.90
10543;DHT22;5320;50.046;10.314;2022-11-20T11:38:15;2.60;99.90
10543;DHT22;5320;50.046;10.314;2022-11-20T11:40:43;2.60;99.90
10543;DHT22;5320;50.046;10.314;2022-11-20T11:43:22;2.60;99.90
10543;DHT22;5320;50.046;10.314;2022-11-20T11:46:25;2.80;99.90
10543;DHT22;5320;50.046;10.314;2022-11-20T11:54:47;2.40;99.90
10543;DHT22;5320;50.046;10.314;2022-11-20T11:57:22;2.40;99.90
10543;DHT22;5320;50.046;10.314;2022-11-20T12:00:04;2.50;99.90
10543;DHT22;5320;50.046;10.314;2022-11-20T12:05:36;2.60;99.90
10543;DHT22;5320;50.046;10.314;2022-11-20T12:08:24;2.40;99.90
10543;DHT22;5320;50.046;10.314;2022-11-20T12:10:57;2.30;99.90
10543;DHT22;5320;50.046;10.314;2022-11-20T12:15:59;2.20;99.90
10543;DHT22;5320;50.046;10.314;2022-11-20T12:18:25;2.20;99.90
10543;DHT22;5320;50.046;10.314;2022-11-20T12:24:15;2.10;99.90
10543;DHT22;5320;50.046;10.314;2022-11-20T12:26:54;2.10;99.90
10543;DHT22;5320;50.046;10.314;2022-11-20T12:29:48;2.20;99.90
10543;DHT22;5320;50.046;10.314;2022-11-20T12:38:00;2.10;99.90
10543;DHT22;5320;50.046;10.314;2022-11-20T12:46:20;2.20;99.90
10543;DHT22;5320;50.046;10.314;2022-11-20T12:49:09;2.20;99.90
10543;DHT22;5320;50.046;10.314;2022-11-20T12:51:58;2.30;99.90
10543;DHT22;5320;50.046;10.314;2022-11-20T12:54:43;2.30;99.90
10543;DHT22;5320;50.046;10.314;2022-11-20T12:57:31;2.50;99.90
10543;DHT22;5320;50.046;10.314;2022-11-20T13:00:17;3.10;99.90
10543;DHT22;5320;50.046;10.314;2022-11-20T13:08:40;2.90;99.90
10543;DHT22;5320;50.046;10.314;2022-11-20T13:11:19;2.80;99.90
10543;DHT22;5320;50.046;10.314;2022-11-20T13:14:00;2.70;99.90
10543;DHT22;5320;50.046;10.314;2022-11-20T13:19:19;2.60;99.90
10543;DHT22;5320;50.046;10.314;2022-11-20T13:21:47;2.50;99.90
10543;DHT22;5320;50.046;10.314;2022-11-20T13:29:36;2.50;99.90
10543;DHT22;5320;50.046;10.314;2022-11-20T13:32:22;2.50;99.90
10543;DHT22;5320;50.046;10.314;2022-11-20T13:37:30;2.50;99.90
10543;DHT22;5320;50.046;10.314;2022-11-20T13:40:25;2.50;99.90
10543;DHT22;5320;50.046;10.314;2022-11-20T13:42:55;2.50;99.90
10543;DHT22;5320;50.046;10.314;2022-11-20T13:45:30;2.50;99.90
10543;DHT22;5320;50.046;10.314;2022-11-20T13:47:57;2.60;99.90
10543;DHT22;5320;50.046;10.314;2022-11-20T13:55:38;2.50;99.90
10543;DHT22;5320;50.046;10.314;2022-11-20T13:58:35;2.60;99.90
10543;DHT22;5320;50.046;10.314;2022-11-20T14:01:20;2.50;99.90
10543;DHT22;5320;50.046;10.314;2022-11-20T14:03:47;2.70;99.90
10543;DHT22;5320;50.046;10.314;2022-11-20T14:06:26;2.70;99.90
10543;DHT22;5320;50.046;10.314;2022-11-20T14:08:53;2.80;99.90
10543;DHT22;5320;50.046;10.314;2022-11-20T14:11:24;2.80;99.90
10543;DHT22;5320;50.046;10.314;2022-11-20T14:14:01;2.80;99.90
10543;DHT22;5320;50.046;10.314;2022-11-20T14:16:33;2.70;99.90
10543;DHT22;5320;50.046;10.314;2022-11-20T14:21:49;2.90;99.90
10543;DHT22;5320;50.046;10.314;2022-11-20T14:24:19;2.90;99.90
10543;DHT22;5320;50.046;10.314;2022-11-20T14:26:46;2.90;99.90
10543;DHT22;5320;50.046;10.314;2022-11-20T14:29:14;2.80;99.90
10543;DHT22;5320;50.046;10.314;2022-11-20T14:31:42;2.80;99.90
10543;DHT22;5320;50.046;10.314;2022-11-20T14:34:38;2.90;99.90
10543;DHT22;5320;50.046;10.314;2022-11-20T14:37:10;3.00;99.90
10543;DHT22;5320;50.046;10.314;2022-11-20T14:39:40;3.00;99.90
10543;DHT22;5320;50.046;10.314;2022-11-20T14:42:23;3.00;99.90
10543;DHT22;5320;50.046;10.314;2022-11-20T14:44:50;3.00;99.90
10543;DHT22;5320;50.046;10.314;2022-11-20T14:47:23;3.00;99.90
10543;DHT22;5320;50.046;10.314;2022-11-20T14:49:51;3.00;99.90
10543;DHT22;5320;50.046;10.314;2022-11-20T14:52:20;3.00;99.90
10543;DHT22;5320;50.046;10.314;2022-11-20T14:54:54;3.00;99.90
10543;DHT22;5320;50.046;10.314;2022-11-20T14:57:28;3.00;99.90
10543;DHT22;5320;50.046;10.314;2022-11-20T15:02:45;3.00;99.90
10543;DHT22;5320;50.046;10.314;2022-11-20T15:05:11;3.00;99.90
10543;DHT22;5320;50.046;10.314;2022-11-20T15:07:39;3.10;99.90
10543;DHT22;5320;50.046;10.314;2022-11-20T15:12:52;3.10;99.90
10543;DHT22;5320;50.046;10.314;2022-11-20T15:15:32;3.10;99.90
10543;DHT22;5320;50.046;10.314;2022-11-20T15:18:00;3.10;99.90
10543;DHT22;5320;50.046;10.314;2022-11-20T15:20:28;3.20;99.90
10543;DHT22;5320;50.046;10.314;2022-11-20T15:22:55;3.20;99.90
10543;DHT22;5320;50.046;10.314;2022-11-20T15:25:21;3.20;99.90
10543;DHT22;5320;50.046;10.314;2022-11-20T15:27:49;3.20;99.90
10543;DHT22;5320;50.046;10.314;2022-11-20T15:30:20;3.20;99.90
10543;DHT22;5320;50.046;10.314;2022-11-20T15:32:46;3.20;99.90
10543;DHT22;5320;50.046;10.314;2022-11-20T15:35:12;3.20;99.90
10543;DHT22;5320;50.046;10.314;2022-11-20T15:37:38;3.20;99.90
10543;DHT22;5320;50.046;10.314;2022-11-20T15:40:05;3.20;99.90
10543;DHT22;5320;50.046;10.314;2022-11-20T15:42:31;3.20;99.90
10543;DHT22;5320;50.046;10.314;2022-11-20T15:44:57;3.20;99.90
10543;DHT22;5320;50.046;10.314;2022-11-20T15:47:32;3.10;99.90
10543;DHT22;5320;50.046;10.314;2022-11-20T15:49:58;3.10;99.90
10543;DHT22;5320;50.046;10.314;2022-11-20T15:52:24;3.10;99.90
10543;DHT22;5320;50.046;10.314;2022-11-20T15:54:49;3.10;99.90
10543;DHT22;5320;50.046;10.314;2022-11-20T15:57:15;3.10;99.90
10543;DHT22;5320;50.046;10.314;2022-11-20T15:59:41;3.10;99.90
10543;DHT22;5320;50.046;10.314;2022-11-20T16:02:14;3.10;99.90
10543;DHT22;5320;50.046;10.314;2022-11-20T16:04:40;3.10;99.90
10543;DHT22;5320;50.046;10.314;2022-11-20T16:07:06;3.10;99.90
10543;DHT22;5320;50.046;10.314;2022-11-20T16:09:32;3.20;99.90
10543;DHT22;5320;50.046;10.314;2022-11-20T16:11:58;3.20;99.90
10543;DHT22;5320;50.046;10.314;2022-11-20T16:14:26;3.20;99.90
10543;DHT22;5320;50.046;10.314;2022-11-20T16:17:11;3.10;99.90
10543;DHT22;5320;50.046;10.314;2022-11-20T16:19:37;3.10;99.90
10543;DHT22;5320;50.046;10.314;2022-11-20T16:22:03;3.10;99.90
10543;DHT22;5320;50.046;10.314;2022-11-20T16:24:29;3.10;99.90
10543;DHT22;5320;50.046;10.314;2022-11-20T16:26:55;3.10;99.90
10543;DHT22;5320;50.046;10.314;2022-11-20T16:29:21;3.10;99.90
10543;DHT22;5320;50.046;10.314;2022-11-20T16:31:47;3.10;99.90
10543;DHT22;5320;50.046;10.314;2022-11-20T16:34:12;3.10;99.90
10543;DHT22;5320;50.046;10.314;2022-11-20T16:36:42;3.10;99.90
10543;DHT22;5320;50.046;10.314;2022-11-20T16:39:09;3.20;99.90
10543;DHT22;5320;50.046;10.314;2022-11-20T16:41:35;3.20;99.90
10543;DHT22;5320;50.046;10.314;2022-11-20T16:44:06;3.20;99.90
10543;DHT22;5320;50.046;10.314;2022-11-20T16:46:32;3.20;99.90
10543;DHT22;5320;50.046;10.314;2022-11-20T16:49:00;3.20;99.90
10543;DHT22;5320;50.046;10.314;2022-11-20T16:51:27;3.10;99.90
10543;DHT22;5320;50.046;10.314;2022-11-20T16:53:53;3.10;99.90
10543;DHT22;5320;50.046;10.314;2022-11-20T16:56:22;3.10;99.90
10543;DHT22;5320;50.046;10.314;2022-11-20T16:58:49;3.10;99.90
10543;DHT22;5320;50.046;10.314;2022-11-20T17:01:17;3.00;99.90
10543;DHT22;5320;50.046;10.314;2022-11-20T17:03:45;3.10;99.90
10543;DHT22;5320;50.046;10.314;2022-11-20T17:06:17;3.00;99.90
10543;DHT22;5320;50.046;10.314;2022-11-20T17:08:44;3.00;99.90
10543;DHT22;5320;50.046;10.314;2022-11-20T17:11:13;3.00;99.90
10543;DHT22;5320;50.046;10.314;2022-11-20T17:13:38;3.00;99.90
10543;DHT22;5320;50.046;10.314;2022-11-20T17:16:06;3.10;99.90
10543;DHT22;5320;50.046;10.314;2022-11-20T17:18:33;3.10;99.90
10543;DHT22;5320;50.046;10.314;2022-11-20T17:20:59;3.10;99.90
10543;DHT22;5320;50.046;10.314;2022-11-20T17:23:29;3.10;99.90
10543;DHT22;5320;50.046;10.314;2022-11-20T17:26:07;3.10;99.90
10543;DHT22;5320;50.046;10.314;2022-11-20T17:28:33;3.20;99.90
10543;DHT22;5320;50.046;10.314;2022-11-20T17:31:01;3.10;99.90
10543;DHT22;5320;50.046;10.314;2022-11-20T17:33:27;3.10;99.90
10543;DHT22;5320;50.046;10.314;2022-11-20T17:35:53;3.10;99.90
10543;DHT22;5320;50.046;10.314;2022-11-20T17:38:18;3.20;99.90
10543;DHT22;5320;50.046;10.314;2022-11-20T17:40:44;3.20;99.90
10543;DHT22;5320;50.046;10.314;2022-11-20T17:43:10;3.20;99.90
10543;DHT22;5320;50.046;10.314;2022-11-20T17:45:36;3.20;99.90
10543;DHT22;5320;50.046;10.314;2022-11-20T17:48:02;3.20;99.90